sensor_id;sensor_type;location;lat;lon;timestamp;P1;durP1;ratioP1;P2;durP2;ratioP2
12129;SDS011;6128;59.340;18.040;2023-10-19T00:01:26;3.00;;;1.37;;
12129;SDS011;6128;59.340;18.040;2023-10-19T00:03:53;1.77;;;0.90;;
12129;SDS011;6128;59.340;18.040;2023-10-19T00:06:21;1.07;;;0.97;;
12129;SDS011;6128;59.340;18.040;2023-10-19T00:08:48;1.67;;;0.80;;
12129;SDS011;6128;59.340;18.040;2023-10-19T00:11:17;1.10;;;1.00;;
12129;SDS011;6128;59.340;18.040;2023-10-19T00:13:49;2.80;;;1.40;;
12129;SDS011;6128;59.340;18.040;2023-10-19T00:16:16;1.00;;;0.97;;
12129;SDS011;6128;59.340;18.040;2023-10-19T00:18:44;1.43;;;1.20;;
12129;SDS011;6128;59.340;18.040;2023-10-19T00:21:13;0.97;;;0.80;;
12129;SDS011;6128;59.340;18.040;2023-10-19T00:23:45;1.00;;;0.90;;
12129;SDS011;6128;59.340;18.040;2023-10-19T00:26:14;0.80;;;0.80;;
12129;SDS011;6128;59.340;18.040;2023-10-19T00:28:44;1.00;;;0.90;;
12129;SDS011;6128;59.340;18.040;2023-10-19T00:31:14;1.20;;;0.90;;
12129;SDS011;6128;59.340;18.040;2023-10-19T00:33:43;1.33;;;0.83;;
12129;SDS011;6128;59.340;18.040;2023-10-19T00:36:10;1.13;;;0.80;;
12129;SDS011;6128;59.340;18.040;2023-10-19T00:38:39;0.80;;;0.80;;
12129;SDS011;6128;59.340;18.040;2023-10-19T00:41:13;1.90;;;1.00;;
12129;SDS011;6128;59.340;18.040;2023-10-19T00:43:46;0.90;;;0.80;;
12129;SDS011;6128;59.340;18.040;2023-10-19T00:46:14;0.90;;;0.80;;
12129;SDS011;6128;59.340;18.040;2023-10-19T00:48:49;1.20;;;0.70;;
12129;SDS011;6128;59.340;18.040;2023-10-19T00:51:20;0.83;;;0.70;;
12129;SDS011;6128;59.340;18.040;2023-10-19T00:54:07;0.70;;;0.70;;
12129;SDS011;6128;59.340;18.040;2023-10-19T00:56:39;1.57;;;0.60;;
12129;SDS011;6128;59.340;18.040;2023-10-19T00:59:12;1.43;;;0.80;;
12129;SDS011;6128;59.340;18.040;2023-10-19T01:01:40;1.40;;;0.80;;
12129;SDS011;6128;59.340;18.040;2023-10-19T01:04:12;0.93;;;0.60;;
12129;SDS011;6128;59.340;18.040;2023-10-19T01:06:40;0.60;;;0.50;;
12129;SDS011;6128;59.340;18.040;2023-10-19T01:09:10;1.33;;;0.60;;
12129;SDS011;6128;59.340;18.040;2023-10-19T01:11:40;0.70;;;0.70;;
12129;SDS011;6128;59.340;18.040;2023-10-19T01:14:19;1.00;;;0.60;;
12129;SDS011;6128;59.340;18.040;2023-10-19T01:16:48;1.07;;;0.70;;
12129;SDS011;6128;59.340;18.040;2023-10-19T01:19:17;0.50;;;0.50;;
12129;SDS011;6128;59.340;18.040;2023-10-19T01:21:45;1.87;;;0.80;;
12129;SDS011;6128;59.340;18.040;2023-10-19T01:24:19;2.77;;;0.80;;
12129;SDS011;6128;59.340;18.040;2023-10-19T01:26:52;1.90;;;0.50;;
12129;SDS011;6128;59.340;18.040;2023-10-19T01:29:20;1.20;;;0.90;;
12129;SDS011;6128;59.340;18.040;2023-10-19T01:31:51;1.57;;;0.57;;
12129;SDS011;6128;59.340;18.040;2023-10-19T01:34:21;1.20;;;0.70;;
12129;SDS011;6128;59.340;18.040;2023-10-19T01:36:51;0.70;;;0.50;;
12129;SDS011;6128;59.340;18.040;2023-10-19T01:39:21;1.90;;;0.70;;
12129;SDS011;6128;59.340;18.040;2023-10-19T01:41:48;0.90;;;0.80;;
12129;SDS011;6128;59.340;18.040;2023-10-19T01:44:16;1.00;;;0.73;;
12129;SDS011;6128;59.340;18.040;2023-10-19T01:46:45;0.90;;;0.60;;
12129;SDS011;6128;59.340;18.040;2023-10-19T01:49:13;0.70;;;0.60;;
12129;SDS011;6128;59.340;18.040;2023-10-19T01:51:51;2.67;;;1.13;;
12129;SDS011;6128;59.340;18.040;2023-10-19T01:54:19;0.70;;;0.70;;
12129;SDS011;6128;59.340;18.040;2023-10-19T01:56:50;0.83;;;0.60;;
12129;SDS011;6128;59.340;18.040;2023-10-19T01:59:19;1.10;;;0.60;;
12129;SDS011;6128;59.340;18.040;2023-10-19T02:01:47;0.97;;;0.80;;
12129;SDS011;6128;59.340;18.040;2023-10-19T02:04:14;0.90;;;0.60;;
12129;SDS011;6128;59.340;18.040;2023-10-19T02:06:41;0.60;;;0.60;;
12129;SDS011;6128;59.340;18.040;2023-10-19T02:09:12;1.53;;;0.60;;
12129;SDS011;6128;59.340;18.040;2023-10-19T02:11:52;0.83;;;0.70;;
12129;SDS011;6128;59.340;18.040;2023-10-19T02:14:20;1.73;;;0.87;;
12129;SDS011;6128;59.340;18.040;2023-10-19T02:16:50;2.50;;;0.63;;
12129;SDS011;6128;59.340;18.040;2023-10-19T02:19:18;1.07;;;0.83;;
12129;SDS011;6128;59.340;18.040;2023-10-19T02:21:47;1.37;;;0.83;;
12129;SDS011;6128;59.340;18.040;2023-10-19T02:24:13;1.63;;;0.70;;
12129;SDS011;6128;59.340;18.040;2023-10-19T02:26:41;0.70;;;0.63;;
12129;SDS011;6128;59.340;18.040;2023-10-19T02:29:10;0.90;;;0.60;;
12129;SDS011;6128;59.340;18.040;2023-10-19T02:31:38;1.83;;;0.70;;
12129;SDS011;6128;59.340;18.040;2023-10-19T02:34:05;1.63;;;0.60;;
12129;SDS011;6128;59.340;18.040;2023-10-19T02:36:34;0.70;;;0.60;;
12129;SDS011;6128;59.340;18.040;2023-10-19T02:39:02;0.73;;;0.50;;
12129;SDS011;6128;59.340;18.040;2023-10-19T02:41:33;0.60;;;0.53;;
12129;SDS011;6128;59.340;18.040;2023-10-19T02:44:00;0.70;;;0.70;;
12129;SDS011;6128;59.340;18.040;2023-10-19T02:46:32;0.40;;;0.40;;
12129;SDS011;6128;59.340;18.040;2023-10-19T02:48:59;0.50;;;0.50;;
12129;SDS011;6128;59.340;18.040;2023-10-19T02:51:28;0.70;;;0.53;;
12129;SDS011;6128;59.340;18.040;2023-10-19T02:53:55;1.27;;;0.70;;
12129;SDS011;6128;59.340;18.040;2023-10-19T02:56:24;0.80;;;0.50;;
12129;SDS011;6128;59.340;18.040;2023-10-19T02:58:52;1.63;;;0.63;;
12129;SDS011;6128;59.340;18.040;2023-10-19T03:01:19;0.40;;;0.40;;
12129;SDS011;6128;59.340;18.040;2023-10-19T03:03:52;0.80;;;0.60;;
12129;SDS011;6128;59.340;18.040;2023-10-19T03:06:19;0.70;;;0.50;;
12129;SDS011;6128;59.340;18.040;2023-10-19T03:08:47;1.07;;;0.50;;
12129;SDS011;6128;59.340;18.040;2023-10-19T03:11:20;1.07;;;0.50;;
12129;SDS011;6128;59.340;18.040;2023-10-19T03:13:48;1.60;;;0.40;;
12129;SDS011;6128;59.340;18.040;2023-10-19T03:16:15;1.00;;;0.60;;
12129;SDS011;6128;59.340;18.040;2023-10-19T03:18:44;1.30;;;0.70;;
12129;SDS011;6128;59.340;18.040;2023-10-19T03:21:11;0.40;;;0.40;;
12129;SDS011;6128;59.340;18.040;2023-10-19T03:23:38;1.30;;;0.60;;
12129;SDS011;6128;59.340;18.040;2023-10-19T03:26:06;0.80;;;0.47;;
12129;SDS011;6128;59.340;18.040;2023-10-19T03:28:52;1.10;;;0.50;;
12129;SDS011;6128;59.340;18.040;2023-10-19T03:31:21;0.63;;;0.53;;
12129;SDS011;6128;59.340;18.040;2023-10-19T03:33:50;1.60;;;0.60;;
12129;SDS011;6128;59.340;18.040;2023-10-19T03:36:22;1.30;;;0.60;;
12129;SDS011;6128;59.340;18.040;2023-10-19T03:38:49;0.60;;;0.60;;
12129;SDS011;6128;59.340;18.040;2023-10-19T03:41:18;0.50;;;0.40;;
12129;SDS011;6128;59.340;18.040;2023-10-19T03:43:50;1.03;;;0.60;;
12129;SDS011;6128;59.340;18.040;2023-10-19T03:46:19;0.43;;;0.40;;
12129;SDS011;6128;59.340;18.040;2023-10-19T03:48:49;0.50;;;0.50;;
12129;SDS011;6128;59.340;18.040;2023-10-19T03:51:16;2.00;;;0.60;;
12129;SDS011;6128;59.340;18.040;2023-10-19T03:53:45;0.83;;;0.57;;
12129;SDS011;6128;59.340;18.040;2023-10-19T03:56:19;1.63;;;0.50;;
12129;SDS011;6128;59.340;18.040;2023-10-19T03:58:48;0.97;;;0.67;;
12129;SDS011;6128;59.340;18.040;2023-10-19T04:01:16;0.83;;;0.60;;
12129;SDS011;6128;59.340;18.040;2023-10-19T04:03:45;1.17;;;0.60;;
12129;SDS011;6128;59.340;18.040;2023-10-19T04:06:13;1.70;;;0.93;;
12129;SDS011;6128;59.340;18.040;2023-10-19T04:08:40;1.30;;;0.70;;
12129;SDS011;6128;59.340;18.040;2023-10-19T04:11:11;0.60;;;0.60;;
12129;SDS011;6128;59.340;18.040;2023-10-19T04:13:47;1.53;;;0.90;;
12129;SDS011;6128;59.340;18.040;2023-10-19T04:16:18;1.70;;;0.70;;
12129;SDS011;6128;59.340;18.040;2023-10-19T04:18:46;0.70;;;0.50;;
12129;SDS011;6128;59.340;18.040;2023-10-19T04:21:14;1.77;;;0.60;;
12129;SDS011;6128;59.340;18.040;2023-10-19T04:23:42;1.57;;;0.67;;
12129;SDS011;6128;59.340;18.040;2023-10-19T04:26:13;1.00;;;0.80;;
12129;SDS011;6128;59.340;18.040;2023-10-19T04:28:43;1.13;;;0.70;;
12129;SDS011;6128;59.340;18.040;2023-10-19T04:31:14;0.90;;;0.60;;
12129;SDS011;6128;59.340;18.040;2023-10-19T04:33:43;0.77;;;0.50;;
12129;SDS011;6128;59.340;18.040;2023-10-19T04:36:13;1.80;;;0.80;;
12129;SDS011;6128;59.340;18.040;2023-10-19T04:38:40;2.20;;;0.70;;
12129;SDS011;6128;59.340;18.040;2023-10-19T04:41:10;1.40;;;0.67;;
12129;SDS011;6128;59.340;18.040;2023-10-19T04:43:40;1.20;;;0.60;;
12129;SDS011;6128;59.340;18.040;2023-10-19T04:46:15;0.63;;;0.53;;
12129;SDS011;6128;59.340;18.040;2023-10-19T04:48:43;3.53;;;1.27;;
12129;SDS011;6128;59.340;18.040;2023-10-19T04:51:11;0.83;;;0.50;;
12129;SDS011;6128;59.340;18.040;2023-10-19T04:53:38;1.73;;;1.07;;
12129;SDS011;6128;59.340;18.040;2023-10-19T04:56:05;0.93;;;0.70;;
12129;SDS011;6128;59.340;18.040;2023-10-19T04:58:36;2.00;;;1.00;;
12129;SDS011;6128;59.340;18.040;2023-10-19T05:01:03;1.13;;;0.90;;
12129;SDS011;6128;59.340;18.040;2023-10-19T05:03:31;0.93;;;0.67;;
12129;SDS011;6128;59.340;18.040;2023-10-19T05:05:59;0.90;;;0.80;;
12129;SDS011;6128;59.340;18.040;2023-10-19T05:08:27;1.27;;;0.80;;
12129;SDS011;6128;59.340;18.040;2023-10-19T05:10:55;1.33;;;0.87;;
12129;SDS011;6128;59.340;18.040;2023-10-19T05:13:24;1.70;;;0.80;;
12129;SDS011;6128;59.340;18.040;2023-10-19T05:15:54;0.90;;;0.87;;
12129;SDS011;6128;59.340;18.040;2023-10-19T05:18:24;1.00;;;0.77;;
12129;SDS011;6128;59.340;18.040;2023-10-19T05:20:53;0.93;;;0.70;;
12129;SDS011;6128;59.340;18.040;2023-10-19T05:23:22;1.83;;;0.63;;
12129;SDS011;6128;59.340;18.040;2023-10-19T05:25:50;1.23;;;0.70;;
12129;SDS011;6128;59.340;18.040;2023-10-19T05:28:18;1.57;;;0.80;;
12129;SDS011;6128;59.340;18.040;2023-10-19T05:30:46;1.40;;;0.97;;
12129;SDS011;6128;59.340;18.040;2023-10-19T05:33:16;0.80;;;0.80;;
12129;SDS011;6128;59.340;18.040;2023-10-19T05:35:46;1.93;;;0.90;;
12129;SDS011;6128;59.340;18.040;2023-10-19T05:38:13;2.67;;;1.10;;
12129;SDS011;6128;59.340;18.040;2023-10-19T05:40:41;1.30;;;0.90;;
12129;SDS011;6128;59.340;18.040;2023-10-19T05:43:09;2.27;;;1.20;;
12129;SDS011;6128;59.340;18.040;2023-10-19T05:45:36;1.37;;;1.20;;
12129;SDS011;6128;59.340;18.040;2023-10-19T05:48:04;1.50;;;1.23;;
12129;SDS011;6128;59.340;18.040;2023-10-19T05:50:34;2.57;;;1.70;;
12129;SDS011;6128;59.340;18.040;2023-10-19T05:53:02;1.50;;;1.37;;
12129;SDS011;6128;59.340;18.040;2023-10-19T05:55:30;2.93;;;1.33;;
12129;SDS011;6128;59.340;18.040;2023-10-19T05:57:57;2.17;;;1.67;;
12129;SDS011;6128;59.340;18.040;2023-10-19T06:00:25;3.07;;;1.47;;
12129;SDS011;6128;59.340;18.040;2023-10-19T06:02:52;2.53;;;1.30;;
12129;SDS011;6128;59.340;18.040;2023-10-19T06:05:19;2.60;;;1.47;;
12129;SDS011;6128;59.340;18.040;2023-10-19T06:07:48;1.40;;;1.30;;
12129;SDS011;6128;59.340;18.040;2023-10-19T06:10:17;1.43;;;1.10;;
12129;SDS011;6128;59.340;18.040;2023-10-19T06:12:47;1.30;;;1.20;;
12129;SDS011;6128;59.340;18.040;2023-10-19T06:15:16;3.17;;;1.13;;
12129;SDS011;6128;59.340;18.040;2023-10-19T06:17:45;3.03;;;1.47;;
12129;SDS011;6128;59.340;18.040;2023-10-19T06:20:14;3.37;;;1.40;;
12129;SDS011;6128;59.340;18.040;2023-10-19T06:22:53;1.90;;;1.17;;
12129;SDS011;6128;59.340;18.040;2023-10-19T06:25:22;2.83;;;1.17;;
12129;SDS011;6128;59.340;18.040;2023-10-19T06:27:50;1.30;;;1.20;;
12129;SDS011;6128;59.340;18.040;2023-10-19T06:30:18;1.40;;;1.30;;
12129;SDS011;6128;59.340;18.040;2023-10-19T06:32:48;2.80;;;1.20;;
12129;SDS011;6128;59.340;18.040;2023-10-19T06:35:16;2.70;;;1.20;;
12129;SDS011;6128;59.340;18.040;2023-10-19T06:37:44;1.47;;;1.37;;
12129;SDS011;6128;59.340;18.040;2023-10-19T06:40:13;1.33;;;1.10;;
12129;SDS011;6128;59.340;18.040;2023-10-19T06:42:41;1.37;;;1.23;;
12129;SDS011;6128;59.340;18.040;2023-10-19T06:45:10;1.13;;;1.03;;
12129;SDS011;6128;59.340;18.040;2023-10-19T06:47:43;2.67;;;1.37;;
12129;SDS011;6128;59.340;18.040;2023-10-19T06:50:12;2.07;;;1.13;;
12129;SDS011;6128;59.340;18.040;2023-10-19T06:52:41;2.40;;;1.77;;
12129;SDS011;6128;59.340;18.040;2023-10-19T06:55:09;1.30;;;1.00;;
12129;SDS011;6128;59.340;18.040;2023-10-19T06:57:40;1.97;;;1.33;;
12129;SDS011;6128;59.340;18.040;2023-10-19T07:00:09;3.10;;;1.30;;
12129;SDS011;6128;59.340;18.040;2023-10-19T07:02:40;1.53;;;1.30;;
12129;SDS011;6128;59.340;18.040;2023-10-19T07:05:09;2.20;;;1.27;;
12129;SDS011;6128;59.340;18.040;2023-10-19T07:07:37;1.30;;;1.20;;
12129;SDS011;6128;59.340;18.040;2023-10-19T07:10:07;1.67;;;1.03;;
12129;SDS011;6128;59.340;18.040;2023-10-19T07:12:35;1.73;;;1.10;;
12129;SDS011;6128;59.340;18.040;2023-10-19T07:15:05;1.27;;;0.80;;
12129;SDS011;6128;59.340;18.040;2023-10-19T07:17:34;1.97;;;1.00;;
12129;SDS011;6128;59.340;18.040;2023-10-19T07:20:03;3.43;;;1.40;;
12129;SDS011;6128;59.340;18.040;2023-10-19T07:22:31;2.30;;;1.30;;
12129;SDS011;6128;59.340;18.040;2023-10-19T07:24:59;0.93;;;0.73;;
12129;SDS011;6128;59.340;18.040;2023-10-19T07:27:27;1.80;;;0.80;;
12129;SDS011;6128;59.340;18.040;2023-10-19T07:29:54;1.10;;;1.00;;
12129;SDS011;6128;59.340;18.040;2023-10-19T07:32:23;0.87;;;0.77;;
12129;SDS011;6128;59.340;18.040;2023-10-19T07:34:50;1.90;;;1.07;;
12129;SDS011;6128;59.340;18.040;2023-10-19T07:37:18;2.63;;;0.80;;
12129;SDS011;6128;59.340;18.040;2023-10-19T07:39:46;1.73;;;0.97;;
12129;SDS011;6128;59.340;18.040;2023-10-19T07:42:14;1.33;;;0.80;;
12129;SDS011;6128;59.340;18.040;2023-10-19T07:44:42;0.60;;;0.60;;
12129;SDS011;6128;59.340;18.040;2023-10-19T07:47:09;1.00;;;0.60;;
12129;SDS011;6128;59.340;18.040;2023-10-19T07:49:38;1.73;;;0.60;;
12129;SDS011;6128;59.340;18.040;2023-10-19T07:52:05;0.80;;;0.80;;
12129;SDS011;6128;59.340;18.040;2023-10-19T07:54:33;0.60;;;0.60;;
12129;SDS011;6128;59.340;18.040;2023-10-19T07:57:01;1.60;;;0.87;;
12129;SDS011;6128;59.340;18.040;2023-10-19T07:59:31;1.20;;;0.90;;
12129;SDS011;6128;59.340;18.040;2023-10-19T08:01:58;1.53;;;1.00;;
12129;SDS011;6128;59.340;18.040;2023-10-19T08:04:27;2.17;;;0.80;;
12129;SDS011;6128;59.340;18.040;2023-10-19T08:06:56;1.53;;;0.90;;
12129;SDS011;6128;59.340;18.040;2023-10-19T08:09:23;1.00;;;0.70;;
12129;SDS011;6128;59.340;18.040;2023-10-19T08:11:56;1.57;;;0.70;;
12129;SDS011;6128;59.340;18.040;2023-10-19T08:14:24;1.43;;;0.80;;
12129;SDS011;6128;59.340;18.040;2023-10-19T08:16:52;1.60;;;1.00;;
12129;SDS011;6128;59.340;18.040;2023-10-19T08:19:19;0.87;;;0.60;;
12129;SDS011;6128;59.340;18.040;2023-10-19T08:21:46;1.47;;;0.83;;
12129;SDS011;6128;59.340;18.040;2023-10-19T08:24:16;1.27;;;0.50;;
12129;SDS011;6128;59.340;18.040;2023-10-19T08:26:45;1.37;;;0.70;;
12129;SDS011;6128;59.340;18.040;2023-10-19T08:29:12;1.27;;;0.60;;
12129;SDS011;6128;59.340;18.040;2023-10-19T08:31:40;0.70;;;0.70;;
12129;SDS011;6128;59.340;18.040;2023-10-19T08:34:07;1.00;;;0.80;;
12129;SDS011;6128;59.340;18.040;2023-10-19T08:36:36;1.20;;;0.77;;
12129;SDS011;6128;59.340;18.040;2023-10-19T08:39:04;0.70;;;0.60;;
12129;SDS011;6128;59.340;18.040;2023-10-19T08:41:33;1.77;;;0.83;;
12129;SDS011;6128;59.340;18.040;2023-10-19T08:44:02;1.00;;;0.90;;
12129;SDS011;6128;59.340;18.040;2023-10-19T08:46:35;0.77;;;0.53;;
12129;SDS011;6128;59.340;18.040;2023-10-19T08:49:03;0.60;;;0.60;;
12129;SDS011;6128;59.340;18.040;2023-10-19T08:51:34;0.80;;;0.60;;
12129;SDS011;6128;59.340;18.040;2023-10-19T08:54:03;0.53;;;0.53;;
12129;SDS011;6128;59.340;18.040;2023-10-19T08:56:31;0.83;;;0.60;;
12129;SDS011;6128;59.340;18.040;2023-10-19T08:59:00;1.90;;;0.90;;
12129;SDS011;6128;59.340;18.040;2023-10-19T09:01:28;0.87;;;0.60;;
12129;SDS011;6128;59.340;18.040;2023-10-19T09:03:56;1.00;;;0.53;;
12129;SDS011;6128;59.340;18.040;2023-10-19T09:06:25;1.27;;;0.40;;
12129;SDS011;6128;59.340;18.040;2023-10-19T09:08:54;1.50;;;0.60;;
12129;SDS011;6128;59.340;18.040;2023-10-19T09:11:23;1.27;;;0.67;;
12129;SDS011;6128;59.340;18.040;2023-10-19T09:13:51;1.33;;;0.70;;
12129;SDS011;6128;59.340;18.040;2023-10-19T09:16:20;1.53;;;0.73;;
12129;SDS011;6128;59.340;18.040;2023-10-19T09:18:49;0.40;;;0.33;;
12129;SDS011;6128;59.340;18.040;2023-10-19T09:21:18;0.40;;;0.30;;
12129;SDS011;6128;59.340;18.040;2023-10-19T09:23:55;1.07;;;0.40;;
12129;SDS011;6128;59.340;18.040;2023-10-19T09:26:23;0.53;;;0.50;;
12129;SDS011;6128;59.340;18.040;2023-10-19T09:28:53;0.73;;;0.40;;
12129;SDS011;6128;59.340;18.040;2023-10-19T09:31:20;0.40;;;0.40;;
12129;SDS011;6128;59.340;18.040;2023-10-19T09:33:49;2.03;;;0.60;;
12129;SDS011;6128;59.340;18.040;2023-10-19T09:36:18;1.57;;;0.50;;
12129;SDS011;6128;59.340;18.040;2023-10-19T09:38:48;0.40;;;0.40;;
12129;SDS011;6128;59.340;18.040;2023-10-19T09:41:17;0.40;;;0.30;;
12129;SDS011;6128;59.340;18.040;2023-10-19T09:43:46;0.40;;;0.33;;
12129;SDS011;6128;59.340;18.040;2023-10-19T09:46:20;0.93;;;0.40;;
12129;SDS011;6128;59.340;18.040;2023-10-19T09:48:49;1.27;;;0.70;;
12129;SDS011;6128;59.340;18.040;2023-10-19T09:51:17;0.50;;;0.40;;
12129;SDS011;6128;59.340;18.040;2023-10-19T09:53:55;0.50;;;0.50;;
12129;SDS011;6128;59.340;18.040;2023-10-19T09:56:30;0.67;;;0.53;;
12129;SDS011;6128;59.340;18.040;2023-10-19T09:59:02;0.67;;;0.50;;
12129;SDS011;6128;59.340;18.040;2023-10-19T10:04:34;0.50;;;0.40;;
12129;SDS011;6128;59.340;18.040;2023-10-19T10:07:02;1.10;;;0.90;;
12129;SDS011;6128;59.340;18.040;2023-10-19T10:09:34;2.23;;;1.63;;
12129;SDS011;6128;59.340;18.040;2023-10-19T10:12:15;0.73;;;0.60;;
12129;SDS011;6128;59.340;18.040;2023-10-19T10:14:52;1.20;;;0.73;;
12129;SDS011;6128;59.340;18.040;2023-10-19T10:17:24;2.07;;;0.80;;
12129;SDS011;6128;59.340;18.040;2023-10-19T10:19:55;1.80;;;0.90;;
12129;SDS011;6128;59.340;18.040;2023-10-19T10:22:43;0.77;;;0.70;;
12129;SDS011;6128;59.340;18.040;2023-10-19T10:25:24;1.73;;;0.70;;
12129;SDS011;6128;59.340;18.040;2023-10-19T10:27:54;1.00;;;0.80;;
12129;SDS011;6128;59.340;18.040;2023-10-19T10:30:22;0.97;;;0.87;;
12129;SDS011;6128;59.340;18.040;2023-10-19T10:32:49;1.00;;;0.90;;
12129;SDS011;6128;59.340;18.040;2023-10-19T10:38:24;1.67;;;0.80;;
12129;SDS011;6128;59.340;18.040;2023-10-19T10:40:54;1.27;;;0.93;;
12129;SDS011;6128;59.340;18.040;2023-10-19T10:43:22;0.77;;;0.70;;
12129;SDS011;6128;59.340;18.040;2023-10-19T10:45:49;0.87;;;0.70;;
12129;SDS011;6128;59.340;18.040;2023-10-19T10:48:18;1.27;;;0.97;;
12129;SDS011;6128;59.340;18.040;2023-10-19T10:50:45;1.00;;;0.77;;
12129;SDS011;6128;59.340;18.040;2023-10-19T10:53:14;1.87;;;1.10;;
12129;SDS011;6128;59.340;18.040;2023-10-19T10:55:41;1.27;;;0.70;;
12129;SDS011;6128;59.340;18.040;2023-10-19T10:58:14;1.20;;;1.10;;
12129;SDS011;6128;59.340;18.040;2023-10-19T11:00:42;1.60;;;1.20;;
12129;SDS011;6128;59.340;18.040;2023-10-19T11:03:09;1.20;;;0.80;;
12129;SDS011;6128;59.340;18.040;2023-10-19T11:05:37;1.67;;;0.93;;
12129;SDS011;6128;59.340;18.040;2023-10-19T11:08:06;1.10;;;0.90;;
12129;SDS011;6128;59.340;18.040;2023-10-19T11:10:36;1.17;;;0.83;;
12129;SDS011;6128;59.340;18.040;2023-10-19T11:13:03;1.00;;;0.90;;
12129;SDS011;6128;59.340;18.040;2023-10-19T11:15:31;1.07;;;0.80;;
12129;SDS011;6128;59.340;18.040;2023-10-19T11:17:59;1.40;;;0.80;;
12129;SDS011;6128;59.340;18.040;2023-10-19T11:20:27;0.70;;;0.70;;
12129;SDS011;6128;59.340;18.040;2023-10-19T11:22:55;0.80;;;0.70;;
12129;SDS011;6128;59.340;18.040;2023-10-19T11:25:26;1.63;;;0.77;;
12129;SDS011;6128;59.340;18.040;2023-10-19T11:27:57;1.03;;;0.90;;
12129;SDS011;6128;59.340;18.040;2023-10-19T11:30:25;0.83;;;0.83;;
12129;SDS011;6128;59.340;18.040;2023-10-19T11:32:54;0.83;;;0.80;;
12129;SDS011;6128;59.340;18.040;2023-10-19T11:35:24;0.77;;;0.60;;
12129;SDS011;6128;59.340;18.040;2023-10-19T11:37:53;1.07;;;1.00;;
12129;SDS011;6128;59.340;18.040;2023-10-19T11:40:21;0.73;;;0.73;;
12129;SDS011;6128;59.340;18.040;2023-10-19T11:42:48;0.80;;;0.70;;
12129;SDS011;6128;59.340;18.040;2023-10-19T11:45:17;0.87;;;0.77;;
12129;SDS011;6128;59.340;18.040;2023-10-19T11:47:44;1.03;;;0.80;;
12129;SDS011;6128;59.340;18.040;2023-10-19T11:50:12;1.17;;;0.80;;
12129;SDS011;6128;59.340;18.040;2023-10-19T11:52:40;1.27;;;0.90;;
12129;SDS011;6128;59.340;18.040;2023-10-19T11:55:08;1.63;;;0.90;;
12129;SDS011;6128;59.340;18.040;2023-10-19T11:57:37;1.43;;;0.90;;
12129;SDS011;6128;59.340;18.040;2023-10-19T12:00:05;0.90;;;0.80;;
12129;SDS011;6128;59.340;18.040;2023-10-19T12:02:36;0.90;;;0.80;;
12129;SDS011;6128;59.340;18.040;2023-10-19T12:05:04;1.77;;;1.00;;
12129;SDS011;6128;59.340;18.040;2023-10-19T12:07:35;0.80;;;0.80;;
12129;SDS011;6128;59.340;18.040;2023-10-19T12:10:03;2.13;;;0.93;;
12129;SDS011;6128;59.340;18.040;2023-10-19T12:12:33;1.73;;;0.83;;
12129;SDS011;6128;59.340;18.040;2023-10-19T12:15:00;1.37;;;0.80;;
12129;SDS011;6128;59.340;18.040;2023-10-19T12:17:28;1.50;;;0.90;;
12129;SDS011;6128;59.340;18.040;2023-10-19T12:19:57;0.87;;;0.87;;
12129;SDS011;6128;59.340;18.040;2023-10-19T12:22:28;0.97;;;0.80;;
12129;SDS011;6128;59.340;18.040;2023-10-19T12:24:57;1.10;;;1.00;;
12129;SDS011;6128;59.340;18.040;2023-10-19T12:27:24;1.67;;;0.60;;
12129;SDS011;6128;59.340;18.040;2023-10-19T12:29:53;1.87;;;0.90;;
12129;SDS011;6128;59.340;18.040;2023-10-19T12:32:21;1.10;;;0.93;;
12129;SDS011;6128;59.340;18.040;2023-10-19T12:34:48;1.10;;;1.00;;
12129;SDS011;6128;59.340;18.040;2023-10-19T12:37:20;1.27;;;1.00;;
12129;SDS011;6128;59.340;18.040;2023-10-19T12:39:49;0.87;;;0.70;;
12129;SDS011;6128;59.340;18.040;2023-10-19T12:42:17;1.30;;;0.90;;
12129;SDS011;6128;59.340;18.040;2023-10-19T12:44:48;1.03;;;0.60;;
12129;SDS011;6128;59.340;18.040;2023-10-19T12:47:16;1.13;;;0.80;;
12129;SDS011;6128;59.340;18.040;2023-10-19T12:49:43;1.63;;;0.73;;
12129;SDS011;6128;59.340;18.040;2023-10-19T12:52:11;0.60;;;0.60;;
12129;SDS011;6128;59.340;18.040;2023-10-19T12:54:41;1.03;;;0.77;;
12129;SDS011;6128;59.340;18.040;2023-10-19T12:57:10;1.60;;;1.00;;
12129;SDS011;6128;59.340;18.040;2023-10-19T12:59:37;1.00;;;0.93;;
12129;SDS011;6128;59.340;18.040;2023-10-19T13:02:05;1.53;;;0.80;;
12129;SDS011;6128;59.340;18.040;2023-10-19T13:04:33;2.10;;;1.27;;
12129;SDS011;6128;59.340;18.040;2023-10-19T13:07:01;0.90;;;0.70;;
12129;SDS011;6128;59.340;18.040;2023-10-19T13:09:29;1.23;;;0.97;;
12129;SDS011;6128;59.340;18.040;2023-10-19T13:11:59;1.57;;;0.90;;
12129;SDS011;6128;59.340;18.040;2023-10-19T13:14:27;2.40;;;1.10;;
12129;SDS011;6128;59.340;18.040;2023-10-19T13:16:54;2.73;;;0.80;;
12129;SDS011;6128;59.340;18.040;2023-10-19T13:19:22;1.03;;;0.60;;
12129;SDS011;6128;59.340;18.040;2023-10-19T13:21:51;1.00;;;0.60;;
12129;SDS011;6128;59.340;18.040;2023-10-19T13:24:19;0.67;;;0.67;;
12129;SDS011;6128;59.340;18.040;2023-10-19T13:26:47;0.63;;;0.63;;
12129;SDS011;6128;59.340;18.040;2023-10-19T13:29:15;1.50;;;1.03;;
12129;SDS011;6128;59.340;18.040;2023-10-19T13:31:45;1.33;;;1.10;;
12129;SDS011;6128;59.340;18.040;2023-10-19T13:34:16;1.20;;;0.87;;
12129;SDS011;6128;59.340;18.040;2023-10-19T13:36:43;2.87;;;0.60;;
12129;SDS011;6128;59.340;18.040;2023-10-19T13:39:11;0.90;;;0.90;;
12129;SDS011;6128;59.340;18.040;2023-10-19T13:41:41;0.60;;;0.60;;
12129;SDS011;6128;59.340;18.040;2023-10-19T13:44:12;0.97;;;0.87;;
12129;SDS011;6128;59.340;18.040;2023-10-19T13:46:41;1.00;;;0.80;;
12129;SDS011;6128;59.340;18.040;2023-10-19T13:49:08;2.07;;;1.27;;
12129;SDS011;6128;59.340;18.040;2023-10-19T13:51:35;2.63;;;1.50;;
12129;SDS011;6128;59.340;18.040;2023-10-19T13:54:04;2.53;;;2.30;;
12129;SDS011;6128;59.340;18.040;2023-10-19T13:56:32;2.53;;;1.60;;
12129;SDS011;6128;59.340;18.040;2023-10-19T13:59:00;2.00;;;1.73;;
12129;SDS011;6128;59.340;18.040;2023-10-19T14:01:27;1.87;;;1.50;;
12129;SDS011;6128;59.340;18.040;2023-10-19T14:03:56;1.20;;;1.03;;
12129;SDS011;6128;59.340;18.040;2023-10-19T14:06:23;3.43;;;2.10;;
12129;SDS011;6128;59.340;18.040;2023-10-19T14:08:51;1.90;;;1.03;;
12129;SDS011;6128;59.340;18.040;2023-10-19T14:11:18;0.70;;;0.70;;
12129;SDS011;6128;59.340;18.040;2023-10-19T14:13:48;2.73;;;1.67;;
12129;SDS011;6128;59.340;18.040;2023-10-19T14:16:17;2.10;;;0.90;;
12129;SDS011;6128;59.340;18.040;2023-10-19T14:18:45;0.60;;;0.60;;
12129;SDS011;6128;59.340;18.040;2023-10-19T14:21:14;0.93;;;0.90;;
12129;SDS011;6128;59.340;18.040;2023-10-19T14:23:43;1.03;;;0.83;;
12129;SDS011;6128;59.340;18.040;2023-10-19T14:26:11;0.70;;;0.60;;
12129;SDS011;6128;59.340;18.040;2023-10-19T14:28:38;0.60;;;0.60;;
12129;SDS011;6128;59.340;18.040;2023-10-19T14:31:06;1.37;;;0.90;;
12129;SDS011;6128;59.340;18.040;2023-10-19T14:33:33;1.00;;;0.70;;
12129;SDS011;6128;59.340;18.040;2023-10-19T14:36:01;0.53;;;0.53;;
12129;SDS011;6128;59.340;18.040;2023-10-19T14:38:31;0.63;;;0.60;;
12129;SDS011;6128;59.340;18.040;2023-10-19T14:40:58;1.10;;;1.00;;
12129;SDS011;6128;59.340;18.040;2023-10-19T14:43:26;1.10;;;0.70;;
12129;SDS011;6128;59.340;18.040;2023-10-19T14:45:54;2.10;;;0.90;;
12129;SDS011;6128;59.340;18.040;2023-10-19T14:48:27;0.73;;;0.67;;
12129;SDS011;6128;59.340;18.040;2023-10-19T14:50:55;0.60;;;0.60;;
12129;SDS011;6128;59.340;18.040;2023-10-19T14:53:23;0.60;;;0.60;;
12129;SDS011;6128;59.340;18.040;2023-10-19T14:55:54;0.70;;;0.70;;
12129;SDS011;6128;59.340;18.040;2023-10-19T14:58:22;0.80;;;0.70;;
12129;SDS011;6128;59.340;18.040;2023-10-19T15:00:52;1.10;;;1.00;;
12129;SDS011;6128;59.340;18.040;2023-10-19T15:03:23;1.77;;;1.33;;
12129;SDS011;6128;59.340;18.040;2023-10-19T15:05:51;2.13;;;1.10;;